Tiempo atmosférico en la estación meteorológica de Eivissa Aeropuerto, Illes Balears (6 m.)



Fecha
DESCASC
Temp. máxima en grados centígrados (hora)
DESCASC
Temp. mínima en grados centígrados (hora)
DESCASC
Temp. media en grados centígrados
DESCASC
Racha de viento máxima en m/sg (hora)
DESCASC
Velocidad máxima media en intervalos de 10 minutos(hora)
DESCASC
Precipitaciones diarias en mm
DESCASC
Precipitaciones de 00:00 a 06:00 en mm
DESCASC
Precipitaciones de 06:00 a 12:00 en mm
DESCASC
Precipitaciones de 12:00 a 18:00 en mm
DESCASC
Precipitaciones de 18:00 a 24:00 en mm
DESCASC

Gráficas

Temp. máximas Temp. mínimas Temp. medias Precipitaciones Rachas de viento máximas Velocidades máximas media en intervalos de 10 minutos

Datos horarios

Fecha y hora oficial Temperatura (ºC) Velocidad del viento (km/h) Dirección del viento Racha (km/h) Dirección de racha Precipitación (mm) Presión (hPa) Tendencia (hPa) Humedad (%)
2019-12-15 23:00:00 11.9 4 Sur 15 Sur 0 1011.6 -0.9 83
2019-12-15 22:00:00 13.2 10 Sur 15 Sur 0 1012.1 -0.2 82
2019-12-15 21:00:00 13.5 12 Sudoeste 21 Sudoeste 0 1012.2 -0.2 80
2019-12-15 20:00:00 14 13 Sudoeste 22 Sur 0 1012.5 0.2 78
2019-12-15 19:00:00 14 15 Sudoeste 26 Sudoeste 0 1012.3 -0.2 76
2019-12-15 18:00:00 14.1 17 Sudoeste 24 Sudoeste 0 1012.4 -0.3 73
2019-12-15 17:00:00 14.8 18 Sudoeste 26 Sudoeste 0 1012.3 -0.8 69
2019-12-15 16:00:00 15.4 17 Sudoeste 26 Sudoeste 0 1012.5 -1.1 66
2019-12-15 15:00:00 15.9 18 Sudoeste 26 Sudoeste 0 1012.7 -1.7 63
2019-12-15 14:00:00 15.8 19 Sudoeste 26 Sur 0 1013.1 -1.6 71
2019-12-15 13:00:00 15.8 18 Sudoeste 28 Sudoeste 0 1013.6 -0.8 68
2019-12-15 12:00:00 15.7 19 Sudoeste 28 Sudoeste 0 1014.4 0.4 69
2019-12-15 11:00:00 15.3 9 Sur 18 Sur 0 1014.7 1.4 69
2019-12-15 10:00:00 14.5 12 Sudoeste 18 Sudoeste 0 1014.4 1.4 71
2019-12-15 09:00:00 11.3 6 Sur 11 Oeste 0 1014 0.8 70
2019-12-15 08:00:00 10.6 8 Oeste 15 Oeste 0 1013.3 0 63
2019-12-15 07:00:00 11.3 4 Oeste 17 Oeste 0 1013 -0.5 64
2019-12-15 06:00:00 11.9 9 Oeste 21 Oeste 0 1013.2 -0.7 65
2019-12-15 05:00:00 11.5 13 Oeste 21 Oeste 0 1013.3 -0.8 67
2019-12-15 04:00:00 11.8 14 Oeste 26 Oeste 0 1013.5 -1.2 65
2019-12-15 03:00:00 12.4 17 Oeste 28 Oeste 0 1013.9 -1.1 64
2019-12-15 02:00:00 12 15 Oeste 22 Oeste 0 1014.1 -0.9 68
2019-12-15 01:00:00 9.3 9 Oeste 17 Oeste 0 1014.7 -0.1 85
2019-12-15 00:00:00 9.7 4 Sudoeste 11 Oeste 0 1015 -0.3 91
2019-12-14 23:00:00 10.7 6 Oeste 13 Noroeste 0 1015 0 90
2019-12-14 22:00:00 9.9 5 Noroeste 9 Noroeste 0 1014.8 -0.2 89
2019-12-14 21:00:00 10.7 8 Noroeste 11 Noroeste 0 1015.3 0.8 87
2019-12-14 20:00:00 11.8 4 Norte 13 Noroeste 0 1015 0.6 84
2019-12-14 19:00:00 14.3 8 Sudoeste 18 Sudoeste 0 1015 0.8 75
2019-12-14 18:00:00 14.5 9 Sur 17 Sur 0 1014.5 0.3 75
2019-12-14 17:00:00 15.7 10 Sudoeste 18 Sudoeste 0 1014.4 -0.3 69
2019-12-14 16:00:00 16.5 15 Sudoeste 26 Noroeste 0 1014.2 -0.8 66
2019-12-14 15:00:00 17.7 17 Oeste 39 Oeste 0 1014.2 -0.5 53
2019-12-14 14:00:00 17.8 29 Oeste 48 Oeste 0 1014.7 0.1 49
2019-12-14 13:00:00 17.7 28 Oeste 54 Oeste 0 1015 1 50
2019-12-14 12:00:00 17.3 30 Oeste 46 Oeste 0 1014.7 2.1 51
2019-12-14 11:00:00 17.1 34 Oeste 48 Oeste 0 1014.6 1.9 50
2019-12-14 10:00:00 16.4 28 Oeste 50 Oeste 0 1014 2.1 54
2019-12-14 09:00:00 15.9 32 Oeste 50 Oeste 0 1012.6 1.6 54
2019-12-14 08:00:00 15.3 31 Oeste 45 Oeste 0 1012.7 1.5 58
2019-12-14 07:00:00 15.7 29 Oeste 52 Oeste 0 1011.9 0.6 56
2019-12-14 06:00:00 16.1 28 Oeste 58 Oeste 0 1011 -0.1 55
2019-12-14 05:00:00 16.2 31 Oeste 68 Oeste 0 1011.2 1 53
2019-12-14 04:00:00 16.4 53 Oeste 74 Oeste 0 1011.3 0.9 54
2019-12-14 03:00:00 16.6 50 Oeste 72 Oeste 0 1011.1 0.1 55
2019-12-14 02:00:00 17 40 Oeste 63 Oeste 0 1010.2 -0.6 53
2019-12-14 01:00:00 17.5 44 Oeste 76 Oeste 0 1010.4 -0.1 51
2019-12-14 00:00:00 17.7 50 Oeste 76 Oeste 0 1011 1.1 52
2019-12-13 23:00:00 17.9 41 Oeste 65 Oeste 0 1010.8 1.6 52
2019-12-13 22:00:00 18.4 42 Oeste 67 Oeste 0 1010.5 2.3 48
2019-12-13 21:00:00 18.8 48 Oeste 82 Oeste 0 1009.9 1.9 47
2019-12-13 20:00:00 18.9 46 Oeste 76 Oeste 0 1009.2 1.7 47
2019-12-13 19:00:00 18.9 47 Oeste 76 Noroeste 0 1008.2 1 46
2019-12-13 18:00:00 18.9 45 Oeste 78 Oeste 0 1008 1.6 46
2019-12-13 17:00:00 18.6 46 Oeste 68 Oeste 0 1007.5 0.6 47
2019-12-13 16:00:00 18.2 46 Oeste 74 Oeste 0 1007.2 0.5 49
2019-12-13 15:00:00 18.5 51 Oeste 76 Oeste 0 1006.4 -0.6 47
2019-12-13 14:00:00 18.2 44 Oeste 82 Oeste 0 1006.9 0.3 50
2019-12-13 13:00:00 17.9 48 Oeste 76 Oeste 0 1006.7 0.5 52
2019-12-13 12:00:00 17.9 41 Oeste 76 Oeste 0 1007 1.1 56
2019-12-13 11:00:00 18.2 46 Oeste 72 Oeste 0 1006.6 1.5 53
2019-12-13 10:00:00 17.7 51 Oeste 71 Oeste 0 1006.2 0.8 56
2019-12-13 09:00:00 16.1 40 Oeste 61 Oeste 0 1005.9 0 68
2019-12-13 08:00:00 15.8 44 Sudoeste 67 Oeste 0 1005.1 -0.9 70
2019-12-13 07:00:00 15.7 43 Sudoeste 61 Sudoeste 0 1005.4 -0.6 68
2019-12-13 06:00:00 15.5 31 Sudoeste 58 Sudoeste 0 1005.9 -0.5 71
2019-12-13 05:00:00 15.5 40 Sudoeste 61 Oeste 0 1006 -0.7 66
2019-12-13 04:00:00 16.1 42 Oeste 65 Oeste 0 1006 -1.7 55
2019-12-13 03:00:00 15.2 36 Sudoeste 61 Oeste 0 1006.4 -1.8 70
2019-12-13 02:00:00 15 46 Sudoeste 63 Sudoeste 0 1006.7 -2.3 66
2019-12-13 01:00:00 14.8 44 Sudoeste 59 Oeste 0 1007.7 -1.7 65
2019-12-13 00:00:00 14.7 42 Sudoeste 54 Sudoeste 0 1008.2 -1.6 64
2019-12-12 23:00:00 14.8 40 Oeste 65 Oeste 0 1009 -1.2 52
2019-12-12 22:00:00 14.3 40 Oeste 61 Oeste 0 1009.4 -0.9 53
2019-12-12 21:00:00 14.1 26 Oeste 61 Oeste 0 1009.8 -1.1 54
2019-12-12 20:00:00 13.9 32 Oeste 50 Sudoeste 0 1010.2 -1.9 52
2019-12-12 19:00:00 13.6 37 Oeste 58 Oeste 0 1010.3 -2.2 51
2019-12-12 18:00:00 13.7 39 Oeste 59 Oeste 0 1010.9 -2.1 49
2019-12-12 17:00:00 14.2 37 Oeste 54 Oeste 0 1012.1 -2 46
2019-12-12 16:00:00 14.1 29 Oeste 48 Oeste 0 1012.5 -2.9 50
2019-12-12 15:00:00 14.1 32 Oeste 54 Oeste 0 1013 -3.2 52
2019-12-12 14:00:00 15.1 32 Oeste 59 Oeste 0 1014.1 -3.2 48
2019-12-12 13:00:00 14.7 35 Oeste 59 Oeste 0 1015.4 -1.9 48
2019-12-12 12:00:00 13.6 36 Oeste 52 Oeste 0 1016.2 -0.9 51
2019-12-12 11:00:00 13.8 35 Oeste 48 Oeste 0 1017.3 0.2 53
2019-12-12 10:00:00 12.9 26 Oeste 39 Oeste 0 1017.3 -0.3 55
2019-12-12 09:00:00 12.3 28 Oeste 42 Oeste 0 1017.1 -0.4 55
2019-12-12 08:00:00 12.2 22 Oeste 41 Oeste 0 1017.1 -0.5 54
2019-12-12 07:00:00 12.7 27 Oeste 42 Oeste 0 1017.6 -0.5 52
2019-12-12 06:00:00 12.1 19 Oeste 32 Oeste 0 1017.5 -0.9 58
2019-12-12 05:00:00 11.6 17 Oeste 30 Oeste 0 1017.6 -1 60
2019-12-12 04:00:00 12.1 22 Oeste 37 Oeste 0 1018.1 -0.6 59
2019-12-12 03:00:00 12 15 Oeste 32 Oeste 0 1018.4 -0.5 56
2019-12-12 02:00:00 11.8 15 Oeste 26 Noroeste 0 1018.6 -- 62
2019-12-12 01:00:00 11.4 12 Oeste 24 Noroeste 0 1018.7 0.5 57
2019-12-12 00:00:00 13 15 Noroeste 42 Norte 0 1018.9 1.2 52
2019-12-11 23:00:00 13.8 22 Norte 46 Noroeste 0 -- -- 43
2019-12-11 22:00:00 14.4 27 Noroeste 45 Norte 0 1018.2 2.3 39
2019-12-11 21:00:00 13.6 18 Norte 33 Norte 0 1017.7 2.8 48
2019-12-11 20:00:00 13.8 15 Norte 41 Norte 0 1017.5 3.5 57
2019-12-11 19:00:00 14.4 27 Norte 46 Norte 0 1015.9 1.7 57
2019-12-11 18:00:00 15.6 19 Noroeste 37 Noroeste 0 1014.9 0.9 56
2019-12-11 17:00:00 15.3 17 Sudoeste 28 Oeste 0 1014 -0.3 60
2019-12-11 16:00:00 16.1 22 Sudoeste 33 Sudoeste 0 1014.2 -1.1 62
2019-12-11 15:00:00 16.5 25 Sudoeste 48 Oeste 0 1014 -2.6 60
2019-12-11 14:00:00 17.6 27 Oeste 42 Oeste 0 1014.3 -3.3 36
2019-12-11 13:00:00 15.7 15 Sudoeste 26 Oeste 0 1015.3 -2.5 66
2019-12-11 12:00:00 15.3 16 Sudoeste 28 Oeste 0 1016.6 -1.2 70
2019-12-11 11:00:00 -- -- -- -- -- -- -- -- --
2019-12-11 10:00:00 -- -- -- -- -- -- -- -- --
2019-12-11 09:00:00 -- -- -- -- -- -- -- -- --
2019-12-11 08:00:00 -- -- -- -- -- -- -- -- --
2019-12-11 07:00:00 -- -- -- -- -- -- -- -- --
2019-12-11 06:00:00 -- -- -- -- -- -- -- -- --
2019-12-11 05:00:00 -- -- -- -- -- -- -- -- --
2019-12-11 04:00:00 -- -- -- -- -- -- -- -- --
2019-12-11 03:00:00 -- -- -- -- -- -- -- -- --
2019-12-11 02:00:00 -- -- -- -- -- -- -- -- --
2019-12-11 01:00:00 -- -- -- -- -- -- -- -- --
2019-12-11 00:00:00 -- -- -- -- -- -- -- -- --
2019-12-10 23:00:00 -- -- -- -- -- -- -- -- --
2019-12-10 22:00:00 -- -- -- -- -- -- -- -- --
2019-12-10 21:00:00 -- -- -- -- -- -- -- -- --
2019-12-10 20:00:00 -- -- -- -- -- -- -- -- --
2019-12-10 19:00:00 -- -- -- -- -- -- -- -- --
2019-12-10 18:00:00 -- -- -- -- -- -- -- -- --
2019-12-10 17:00:00 -- -- -- -- -- -- -- -- --
2019-12-10 16:00:00 -- -- -- -- -- -- -- -- --
2019-12-10 15:00:00 -- -- -- -- -- -- -- -- --
2019-12-10 14:00:00 -- -- -- -- -- -- -- -- --
2019-12-10 13:00:00 -- -- -- -- -- -- -- -- --
2019-12-10 12:00:00 -- -- -- -- -- -- -- -- --
2019-12-10 11:00:00 -- -- -- -- -- -- -- -- --
2019-12-10 10:00:00 -- -- -- -- -- -- -- -- --
2019-12-10 09:00:00 -- -- -- -- -- -- -- -- --
2019-12-10 08:00:00 -- -- -- -- -- -- -- -- --
2019-12-10 07:00:00 -- -- -- -- -- -- -- -- --
2019-12-10 06:00:00 -- -- -- -- -- -- -- -- --
2019-12-10 05:00:00 -- -- -- -- -- -- -- -- --
2019-12-10 04:00:00 -- -- -- -- -- -- -- -- --
2019-12-10 03:00:00 -- -- -- -- -- -- -- -- --
2019-12-10 02:00:00 -- -- -- -- -- -- -- -- --
2019-12-10 01:00:00 -- -- -- -- -- -- -- -- --
2019-12-10 00:00:00 -- -- -- -- -- -- -- -- --
2019-12-09 23:00:00 -- -- -- -- -- -- -- -- --
2019-12-09 22:00:00 -- -- -- -- -- -- -- -- --
2019-12-09 21:00:00 -- -- -- -- -- -- -- -- --
2019-12-09 20:00:00 -- -- -- -- -- -- -- -- --
2019-12-09 19:00:00 -- -- -- -- -- -- -- -- --
2019-12-09 18:00:00 -- -- -- -- -- -- -- -- --
2019-12-09 17:00:00 -- -- -- -- -- -- -- -- --
2019-12-09 16:00:00 -- -- -- -- -- -- -- -- --
2019-12-09 15:00:00 -- -- -- -- -- -- -- -- --
2019-12-09 14:00:00 -- -- -- -- -- -- -- -- --
2019-12-09 13:00:00 -- -- -- -- -- -- -- -- --
2019-12-09 12:00:00 -- -- -- -- -- -- -- -- --
2019-12-09 11:00:00 -- -- -- -- -- -- -- -- --
2019-12-09 10:00:00 -- -- -- -- -- -- -- -- --
2019-12-09 09:00:00 -- -- -- -- -- -- -- -- --
2019-12-09 08:00:00 -- -- -- -- -- -- -- -- --
2019-12-09 07:00:00 -- -- -- -- -- -- -- -- --
2019-12-09 06:00:00 -- -- -- -- -- -- -- -- --
2019-12-09 05:00:00 -- -- -- -- -- -- -- -- --
2019-12-09 04:00:00 -- -- -- -- -- -- -- -- --
2019-12-09 03:00:00 -- -- -- -- -- -- -- -- --
2019-12-09 02:00:00 -- -- -- -- -- -- -- -- --
2019-12-09 01:00:00 -- -- -- -- -- -- -- -- --
2019-12-09 00:00:00 -- -- -- -- -- -- -- -- --
2019-12-08 23:00:00 -- -- -- -- -- -- -- -- --
2019-12-08 22:00:00 -- -- -- -- -- -- -- -- --
2019-12-08 21:00:00 -- -- -- -- -- -- -- -- --
2019-12-08 20:00:00 -- -- -- -- -- -- -- -- --
2019-12-08 19:00:00 -- -- -- -- -- -- -- -- --
2019-12-08 18:00:00 -- -- -- -- -- -- -- -- --
2019-12-08 17:00:00 -- -- -- -- -- -- -- -- --
2019-12-08 16:00:00 -- -- -- -- -- -- -- -- --
2019-12-08 15:00:00 -- -- -- -- -- -- -- -- --
2019-12-08 14:00:00 -- -- -- -- -- -- -- -- --
2019-12-08 13:00:00 -- -- -- -- -- -- -- -- --
2019-12-08 12:00:00 -- -- -- -- -- -- -- -- --
2019-12-08 11:00:00 -- -- -- -- -- -- -- -- --
2019-12-08 10:00:00 -- -- -- -- -- -- -- -- --
2019-12-08 09:00:00 -- -- -- -- -- -- -- -- --
2019-12-08 08:00:00 -- -- -- -- -- -- -- -- --
2019-12-08 07:00:00 -- -- -- -- -- -- -- -- --
2019-12-08 06:00:00 -- -- -- -- -- -- -- -- --
2019-12-08 05:00:00 -- -- -- -- -- -- -- -- --
2019-12-08 04:00:00 -- -- -- -- -- -- -- -- --
2019-12-08 03:00:00 -- -- -- -- -- -- -- -- --
2019-12-08 02:00:00 -- -- -- -- -- -- -- -- --
2019-12-08 01:00:00 -- -- -- -- -- -- -- -- --
2019-12-08 00:00:00 -- -- -- -- -- -- -- -- --
2019-12-07 23:00:00 -- -- -- -- -- -- -- -- --
2019-12-07 22:00:00 -- -- -- -- -- -- -- -- --
2019-12-07 21:00:00 -- -- -- -- -- -- -- -- --
2019-12-07 20:00:00 -- -- -- -- -- -- -- -- --
2019-12-07 19:00:00 -- -- -- -- -- -- -- -- --
2019-12-07 18:00:00 -- -- -- -- -- -- -- -- --
2019-12-07 17:00:00 -- -- -- -- -- -- -- -- --
2019-12-07 16:00:00 -- -- -- -- -- -- -- -- --
2019-12-07 15:00:00 -- -- -- -- -- -- -- -- --
2019-12-07 14:00:00 -- -- -- -- -- -- -- -- --
2019-12-07 13:00:00 -- -- -- -- -- -- -- -- --
2019-12-07 12:00:00 -- -- -- -- -- -- -- -- --
2019-12-07 11:00:00 -- -- -- -- -- -- -- -- --
2019-12-07 10:00:00 -- -- -- -- -- -- -- -- --
2019-12-07 09:00:00 -- -- -- -- -- -- -- -- --
2019-12-07 08:00:00 -- -- -- -- -- -- -- -- --
2019-12-07 07:00:00 -- -- -- -- -- -- -- -- --
2019-12-07 06:00:00 -- -- -- -- -- -- -- -- --
2019-12-07 05:00:00 -- -- -- -- -- -- -- -- --
2019-12-07 04:00:00 -- -- -- -- -- -- -- -- --
2019-12-07 03:00:00 -- -- -- -- -- -- -- -- --
2019-12-07 02:00:00 -- -- -- -- -- -- -- -- --
2019-12-07 01:00:00 -- -- -- -- -- -- -- -- --
2019-12-07 00:00:00 -- -- -- -- -- -- -- -- --
2019-12-06 23:00:00 -- -- -- -- -- -- -- -- --
2019-12-06 22:00:00 -- -- -- -- -- -- -- -- --
2019-12-06 21:00:00 -- -- -- -- -- -- -- -- --
2019-12-06 20:00:00 -- -- -- -- -- -- -- -- --
2019-12-06 19:00:00 -- -- -- -- -- -- -- -- --
2019-12-06 18:00:00 -- -- -- -- -- -- -- -- --
2019-12-06 17:00:00 -- -- -- -- -- -- -- -- --
2019-12-06 16:00:00 -- -- -- -- -- -- -- -- --
2019-12-06 15:00:00 -- -- -- -- -- -- -- -- --
2019-12-06 14:00:00 -- -- -- -- -- -- -- -- --
2019-12-06 13:00:00 -- -- -- -- -- -- -- -- --
2019-12-06 12:00:00 -- -- -- -- -- -- -- -- --
2019-12-06 11:00:00 -- -- -- -- -- -- -- -- --
2019-12-06 10:00:00 -- -- -- -- -- -- -- -- --
2019-12-06 09:00:00 -- -- -- -- -- -- -- -- --
2019-12-06 08:00:00 -- -- -- -- -- -- -- -- --
2019-12-06 07:00:00 -- -- -- -- -- -- -- -- --
2019-12-06 06:00:00 -- -- -- -- -- -- -- -- --
2019-12-06 05:00:00 -- -- -- -- -- -- -- -- --
2019-12-06 04:00:00 -- -- -- -- -- -- -- -- --
2019-12-06 03:00:00 -- -- -- -- -- -- -- -- --
2019-12-06 02:00:00 -- -- -- -- -- -- -- -- --
2019-12-06 01:00:00 -- -- -- -- -- -- -- -- --
2019-12-06 00:00:00 -- -- -- -- -- -- -- -- --
2019-12-05 23:00:00 -- -- -- -- -- -- -- -- --
2019-12-05 22:00:00 -- -- -- -- -- -- -- -- --
2019-12-05 21:00:00 -- -- -- -- -- -- -- -- --
2019-12-05 20:00:00 -- -- -- -- -- -- -- -- --
2019-12-05 19:00:00 -- -- -- -- -- -- -- -- --
2019-12-05 18:00:00 -- -- -- -- -- -- -- -- --
2019-12-05 17:00:00 -- -- -- -- -- -- -- -- --
2019-12-05 16:00:00 -- -- -- -- -- -- -- -- --
2019-12-05 15:00:00 -- -- -- -- -- -- -- -- --
2019-12-05 14:00:00 -- -- -- -- -- -- -- -- --
2019-12-05 13:00:00 -- -- -- -- -- -- -- -- --
2019-12-05 12:00:00 -- -- -- -- -- -- -- -- --
2019-12-05 11:00:00 -- -- -- -- -- -- -- -- --
2019-12-05 10:00:00 -- -- -- -- -- -- -- -- --
2019-12-05 09:00:00 -- -- -- -- -- -- -- -- --
2019-12-05 08:00:00 -- -- -- -- -- -- -- -- --
2019-12-05 07:00:00 -- -- -- -- -- -- -- -- --
2019-12-05 06:00:00 -- -- -- -- -- -- -- -- --
2019-12-05 05:00:00 -- -- -- -- -- -- -- -- --
2019-12-05 04:00:00 -- -- -- -- -- -- -- -- --
2019-12-05 03:00:00 -- -- -- -- -- -- -- -- --
2019-12-05 02:00:00 -- -- -- -- -- -- -- -- --
2019-12-05 01:00:00 -- -- -- -- -- -- -- -- --
2019-12-05 00:00:00 -- -- -- -- -- -- -- -- --
2019-12-04 23:00:00 -- -- -- -- -- -- -- -- --
2019-12-04 22:00:00 -- -- -- -- -- -- -- -- --
2019-12-04 21:00:00 -- -- -- -- -- -- -- -- --
2019-12-04 20:00:00 -- -- -- -- -- -- -- -- --
2019-12-04 19:00:00 -- -- -- -- -- -- -- -- --
2019-12-04 18:00:00 -- -- -- -- -- -- -- -- --
2019-12-04 17:00:00 -- -- -- -- -- -- -- -- --
2019-12-04 16:00:00 -- -- -- -- -- -- -- -- --
2019-12-04 15:00:00 -- -- -- -- -- -- -- -- --
2019-12-04 14:00:00 -- -- -- -- -- -- -- -- --
2019-12-04 13:00:00 -- -- -- -- -- -- -- -- --
2019-12-04 12:00:00 -- -- -- -- -- -- -- -- --
2019-12-04 11:00:00 -- -- -- -- -- -- -- -- --
2019-12-04 10:00:00 -- -- -- -- -- -- -- -- --
2019-12-04 09:00:00 -- -- -- -- -- -- -- -- --
2019-12-04 08:00:00 -- -- -- -- -- -- -- -- --
2019-12-04 07:00:00 -- -- -- -- -- -- -- -- --
2019-12-04 06:00:00 -- -- -- -- -- -- -- -- --
2019-12-04 05:00:00 -- -- -- -- -- -- -- -- --
2019-12-04 04:00:00 -- -- -- -- -- -- -- -- --
2019-12-04 03:00:00 -- -- -- -- -- -- -- -- --
2019-12-04 02:00:00 -- -- -- -- -- -- -- -- --
2019-12-04 01:00:00 -- -- -- -- -- -- -- -- --
2019-12-04 00:00:00 14.6 26 Nordeste 48 Nordeste 1.2 1005.6 -1.7 83
2019-12-03 23:00:00 14.7 30 Nordeste 45 Norte 0 1005.9 -2.3 74
2019-12-03 22:00:00 14 27 Nordeste 58 Nordeste 0.3 1006.6 -1.9 77
2019-12-03 21:00:00 14.1 34 Nordeste 52 Norte 0.3 1007.3 -0.7 76
2019-12-03 20:00:00 14.4 24 Nordeste 46 Nordeste 0 1008.2 -0.3 67
2019-12-03 19:00:00 14.3 30 Nordeste 54 Nordeste 0 1008.5 -0.8 65
2019-12-03 18:00:00 14.1 31 Nordeste 48 Nordeste 0 1008 -1.5 75
2019-12-03 17:00:00 13.7 30 Nordeste 42 Nordeste 0 1008.5 -1.9 68
2019-12-03 16:00:00 13.4 28 Nordeste 55 Nordeste 0 1009.3 -2.3 66
2019-12-03 15:00:00 13.7 35 Nordeste 50 Nordeste 0 1009.5 -3.2 66
2019-12-03 14:00:00 13.9 32 Nordeste 52 Nordeste 0 1010.4 -3.4 66
2019-12-03 13:00:00 13.8 30 Nordeste 48 Nordeste 0 1011.6 -2.4 66
2019-12-03 12:00:00 13.4 32 Nordeste 48 Este 0 1012.7 -0.9 67
2019-12-03 11:00:00 13.6 28 Nordeste 48 Nordeste 0 1013.8 0.3 67
2019-12-03 10:00:00 13.6 30 Este 52 Este 0 1014 0.9 65
2019-12-03 09:00:00 13.5 36 Este 50 Este 0 1013.6 0.8 65
2019-12-03 08:00:00 13.5 32 Este 50 Este 0 1013.5 0.5 65
2019-12-03 07:00:00 13.6 30 Nordeste 52 Nordeste 0 1013.1 -0.1 67
2019-12-03 06:00:00 13.4 27 Nordeste 45 Este 0 1012.8 -0.8 68
2019-12-03 05:00:00 13.8 30 Nordeste 50 Nordeste 0 1013 -0.7 68
2019-12-03 04:00:00 13.9 32 Nordeste 48 Nordeste 0 1013.2 -1.1 67
2019-12-03 03:00:00 14.2 32 Nordeste 50 Nordeste 0 1013.6 -0.9 67
2019-12-03 02:00:00 14.3 32 Este 48 Este 0 1013.7 -0.9 66
2019-12-03 01:00:00 14.2 29 Nordeste 46 Nordeste 0 1014.3 -0.1 68
2019-12-03 00:00:00 14.1 30 Nordeste 45 Nordeste 0 1014.5 0.2 70
2019-12-02 23:00:00 14.2 26 Nordeste 41 Este 0 1014.6 0.7 70
2019-12-02 22:00:00 13.9 26 Nordeste 48 Nordeste 0.2 1014.4 1.2 74
2019-12-02 21:00:00 14.5 25 Nordeste 48 Este 0 1014.3 1.8 70
2019-12-02 20:00:00 14.7 30 Nordeste 45 Nordeste 0 1013.9 1.8 71
2019-12-02 19:00:00 14.8 24 Nordeste 46 Nordeste 0 1013.2 1.2 71
2019-12-02 18:00:00 15 28 Nordeste 42 Nordeste 0 1012.5 0.7 72
2019-12-02 17:00:00 15 28 Nordeste 42 Nordeste 0 1012.1 0.1 76
2019-12-02 16:00:00 15.2 23 Este 37 Este 0 1012 0 78
2019-12-02 15:00:00 15.3 27 Este 41 Este 0 1011.8 -0.9 79
2019-12-02 14:00:00 15.4 30 Este 42 Este 0 1012 -0.2 80
2019-12-02 13:00:00 15.7 27 Este 37 Nordeste 0.2 1012 0.3 84
2019-12-02 12:00:00 15.9 18 Nordeste 26 Este 0 1012.7 1.7 78
2019-12-02 11:00:00 15.3 13 Este 17 Este 0 1012.2 1.6 82
2019-12-02 10:00:00 14.4 10 Nordeste 17 Nordeste 0 1011.7 1.7 86
2019-12-02 09:00:00 13.7 10 Nordeste 24 Nordeste 0 1011 1.3 85
2019-12-02 08:00:00 13.4 12 Nordeste 21 Norte 0.2 1010.6 1.1 85
2019-12-02 07:00:00 13.5 6 Este 11 Este 0 1010 0.2 80
2019-12-02 06:00:00 11.6 0 Calma 8 Nordeste 0 1009.7 0.1 90
2019-12-02 05:00:00 10.8 3 Este 13 Norte 0 1009.5 -0.4 90
2019-12-02 04:00:00 10.1 0 Calma 8 Este 0 1009.8 -0.2 88
2019-12-02 03:00:00 11.2 3 Norte 15 Norte 0 1009.6 -0.4 87
2019-12-02 02:00:00 12.4 4 Norte 13 Norte 0 1009.9 -0.3 86
2019-12-02 01:00:00 13.4 12 Norte 21 Norte 4.9 1010 0.1 80
2019-12-02 00:00:00 13.7 8 Nordeste 13 Norte 0 1010 0.1 69
2019-12-01 23:00:00 13.9 8 Nordeste 13 Nordeste 0 1010.2 0.5 67
2019-12-01 22:00:00 14.7 8 Nordeste 11 Nordeste 0 1009.9 0.4 62
2019-12-01 21:00:00 14.5 4 Nordeste 13 Nordeste 0 1009.9 0.9 60
2019-12-01 20:00:00 14 8 Nordeste 11 Nordeste 0 1009.7 0.8 65
2019-12-01 19:00:00 13.8 2 Noroeste 5 Oeste 0 1009.5 0.5 62
2019-12-01 18:00:00 15.3 4 Noroeste 21 Noroeste 0 1009 -0.2 48
2019-12-01 17:00:00 16.2 6 Norte 26 Noroeste 0 1008.9 -0.7 50
2019-12-01 16:00:00 16.7 17 Noroeste 26 Noroeste 0 1009 -1 54
2019-12-01 15:00:00 17.9 15 Oeste 24 Oeste 0 1009.2 -1.5 62
2019-12-01 14:00:00 17.2 19 Sudoeste 26 Sudoeste 0 1009.6 -1.6 75
2019-12-01 13:00:00 17.6 17 Sudoeste 24 Sudoeste 0 1010 -1.3 77
2019-12-01 12:00:00 17.1 15 Sudoeste 21 Sudoeste 0 1010.7 -0.1 77
2019-12-01 11:00:00 16.7 13 Sudoeste 17 Sudoeste 0 1011.2 0.6 78
2019-12-01 10:00:00 15.9 10 Sudoeste 13 Sudoeste 0 1011.3 0.7 85
2019-12-01 09:00:00 14.1 0 Calma 11 Oeste 0 1010.8 0.1 91
2019-12-01 08:00:00 12.7 8 Oeste 11 Oeste 0 1010.6 -0.3 90
2019-12-01 07:00:00 12.8 6 Oeste 15 Sudoeste 0 1010.6 -0.9 88
2019-12-01 06:00:00 14.3 12 Sudoeste 15 Sudoeste 0 1010.7 -1.3 87
2019-12-01 05:00:00 14.7 12 Sudoeste 18 Sudoeste 0 1010.9 -1.4 87
2019-12-01 04:00:00 14.9 12 Sudoeste 17 Sudoeste 0 1011.5 -1.2 87
2019-12-01 03:00:00 14.9 13 Sudoeste 21 Sudoeste 0 1012 -0.9 85
2019-12-01 02:00:00 14.9 14 Sudoeste 28 Sudoeste 0 1012.3 -0.9 86
2019-12-01 01:00:00 15.1 20 Sudoeste 37 Sudoeste 0 1012.7 -1.1 86
2019-12-01 00:00:00 15.3 26 Sudoeste 39 Sudoeste 0 1012.9 -1.2 84
2019-11-30 23:00:00 15.3 25 Sudoeste 35 Sudoeste 0 1013.2 -1.1 86
2019-11-30 22:00:00 15.3 23 Sudoeste 32 Sudoeste 0 1013.8 -0.6 88
2019-11-30 21:00:00 15.5 22 Sudoeste 33 Sudoeste 0 1014.1 -0.3 87
2019-11-30 20:00:00 15.8 23 Sudoeste 30 Sur 0 1014.3 -0.5 86
2019-11-30 19:00:00 15.7 18 Sudoeste 26 Sudoeste 0 1014.4 -1 84
2019-11-30 18:00:00 14.6 13 Sudoeste 18 Sudoeste 0 1014.4 -1.5 92
2019-11-30 17:00:00 14.6 11 Sudoeste 18 Sudoeste 0 1014.8 -1.7 90
2019-11-30 16:00:00 15.8 13 Sudoeste 17 Sudoeste 0 1015.4 -2.1 83
2019-11-30 15:00:00 17.2 12 Sudoeste 17 Sudoeste 0 1015.9 -2.6 81
2019-11-30 14:00:00 17.6 13 Sudoeste 18 Sudoeste 0 1016.5 -2.6 80
2019-11-30 13:00:00 17.8 9 Sudoeste 17 Sur 0 1017.5 -1.3 80
2019-11-30 12:00:00 17.4 12 Sudoeste 18 Sudoeste 0 1018.5 -0.2 82
2019-11-30 11:00:00 15.8 11 Oeste 15 Sudoeste 0 1019.1 0.3 91
2019-11-30 10:00:00 13.7 8 Sur 11 Sur 0 1018.8 0.4 90
2019-11-30 09:00:00 11.3 3 Nordeste 8 Oeste 0 1018.7 0.3 91
2019-11-30 08:00:00 9.8 3 Noroeste 9 Noroeste 0 1018.8 0.3 91
2019-11-30 07:00:00 9.1 3 Nordeste 9 Noroeste 0 1018.4 -0.4 91
2019-11-30 06:00:00 9.1 5 Norte 9 Norte 0 1018.4 -0.5 91
2019-11-30 05:00:00 9.3 2 Norte 5 Oeste 0 1018.5 -0.2 91
2019-11-30 04:00:00 9.7 6 Noroeste 8 Noroeste 0 1018.8 -0.1 90
2019-11-30 03:00:00 9.9 4 Norte 9 Noroeste 0 1018.9 -0.2 90
2019-11-30 02:00:00 10.2 4 Noroeste 8 Noroeste 0 1018.7 -0.3 90
2019-11-30 01:00:00 9.2 3 Oeste 8 Noroeste 0 1018.9 0 90
2019-11-30 00:00:00 10.2 6 Norte 8 Norte 0 1019.1 0.3 89
2019-11-29 23:00:00 11.6 4 Noroeste 13 Noroeste 0 1019 0.4 87
2019-11-29 22:00:00 11.9 4 Norte 13 Noroeste 0 1018.9 0.6 87
2019-11-29 21:00:00 11.8 4 Noroeste 9 Noroeste 0 1018.8 1.4 87
2019-11-29 20:00:00 12.7 4 Oeste 8 Norte 0 1018.6 1.4 87
2019-11-29 19:00:00 15.1 7 Oeste 11 Sudoeste 0 1018.3 1.5 90
2019-11-29 18:00:00 15.4 8 Sudoeste 15 Sudoeste 0 1017.4 0.8 86
2019-11-29 17:00:00 16.6 14 Sudoeste 21 Sudoeste 0 1017.2 0.1 81
2019-11-29 16:00:00 17.8 16 Sudoeste 24 Sudoeste 0 1016.8 -0.4 71
2019-11-29 15:00:00 18 17 Sudoeste 26 Sudoeste 0 1016.6 -0.8 72
2019-11-29 14:00:00 18.3 18 Sudoeste 32 Sudoeste 0 1017.1 -0.1 71
2019-11-29 13:00:00 17.9 25 Sudoeste 33 Sudoeste 0 1017.2 0.6 71
2019-11-29 12:00:00 17.8 21 Sudoeste 32 Sudoeste 0 1017.4 1.3 73
2019-11-29 11:00:00 17.3 22 Sudoeste 30 Sudoeste 0 1017.2 1.8 75
2019-11-29 10:00:00 16.8 18 Sudoeste 26 Sudoeste 0 1016.6 1.8 77
2019-11-29 09:00:00 15.9 18 Sudoeste 24 Sudoeste 0 1016.1 1.7 81
2019-11-29 08:00:00 14.5 12 Sudoeste 22 Sudoeste 0 1015.4 1.5 77
2019-11-29 07:00:00 14.5 19 Sudoeste 24 Sudoeste 0 1014.8 0.8 84
2019-11-29 06:00:00 15 18 Sudoeste 35 Oeste 0 1014.4 0.6 66
2019-11-29 05:00:00 15.2 23 Oeste 33 Sudoeste 0 1013.9 0.2 58
2019-11-29 04:00:00 15.6 9 Sudoeste 41 Oeste 0 1014 0.1 57
2019-11-29 03:00:00 15.7 30 Oeste 48 Oeste 0 1013.8 -0.5 55
2019-11-29 02:00:00 16.2 36 Oeste 55 Oeste 0 1013.7 -1 51
2019-11-29 01:00:00 16.4 39 Oeste 59 Oeste 0 1013.9 -0.7 51
2019-11-29 00:00:00 16 38 Oeste 50 Oeste 0 1014.3 0 54
2019-11-28 23:00:00 15.3 27 Oeste 48 Oeste 0 1014.7 0.4 64
2019-11-28 22:00:00 15.4 28 Oeste 41 Sudoeste 0 1014.6 0.3 76
2019-11-28 21:00:00 15.7 26 Sudoeste 37 Sudoeste 0 1014.3 0.2 82
2019-11-28 20:00:00 15.6 18 Sudoeste 30 Sudoeste 0 1014.3 0.3 77
2019-11-28 19:00:00 15.4 14 Sudoeste 24 Sudoeste 0 1014.3 0.4 79
2019-11-28 18:00:00 15.7 17 Sudoeste 26 Sudoeste 0 1014.1 0.3 77
2019-11-28 17:00:00 16.1 14 Sudoeste 24 Sudoeste 0 1014 -0.5 71
2019-11-28 16:00:00 16.9 16 Sudoeste 30 Sudoeste 0 1013.9 -0.8 62
2019-11-28 15:00:00 17.6 23 Sudoeste 32 Sudoeste 0 1013.8 -1.5 59
2019-11-28 14:00:00 18.5 24 Oeste 37 Sudoeste 0 1014.5 -0.8 48
2019-11-28 13:00:00 18.1 26 Oeste 42 Oeste 0 1014.7 0.2 53
2019-11-28 12:00:00 17.7 27 Oeste 48 Oeste 0 1015.3 1.3 54
2019-11-28 11:00:00 17.3 30 Oeste 42 Oeste 0 1015.3 2 54
2019-11-28 10:00:00 16.8 30 Oeste 48 Oeste 0 1014.5 1.8 55
2019-11-28 09:00:00 16 25 Oeste 48 Oeste 0 1014 2.3 56
2019-11-28 08:00:00 15.5 33 Oeste 52 Oeste 0 1013.3 1.9 57
2019-11-28 07:00:00 15.6 30 Oeste 52 Oeste 0 1012.7 1.5 55
2019-11-28 06:00:00 15.6 32 Oeste 48 Oeste 0 1011.7 0.5 56
2019-11-28 05:00:00 15.6 24 Oeste 46 Noroeste 0 1011.4 0.5 57
2019-11-28 04:00:00 15.5 24 Oeste 41 Oeste 0 1011.2 0.5 59
2019-11-28 03:00:00 15.9 24 Oeste 54 Oeste 0 1011.2 0.3 54
2019-11-28 02:00:00 16.4 36 Oeste 59 Oeste 0 1010.9 0.4 52
2019-11-28 01:00:00 16.2 34 Oeste 55 Oeste 0 1010.7 0.4 53
2019-11-28 00:00:00 16.6 35 Oeste 55 Oeste 0 1010.9 0.4 47
2019-11-27 23:00:00 16.4 30 Oeste 46 Oeste 0 1010.5 0.5 49
2019-11-27 22:00:00 17.1 39 Oeste 48 Oeste 0 1010.3 0.5 44
2019-11-27 21:00:00 16 22 Oeste 39 Oeste 0 1010.5 1.3 53
2019-11-27 20:00:00 14.5 15 Oeste 18 Oeste 0 1010 1.3 82
2019-11-27 19:00:00 15 13 Oeste 21 Oeste 0 1009.8 1.4 81
2019-11-27 18:00:00 15.9 13 Oeste 24 Sudoeste 0 1009.2 0.9 77
2019-11-27 17:00:00 17.6 17 Sudoeste 30 Sudoeste 0 1008.7 0.3 68
2019-11-27 16:00:00 19.5 17 Sudoeste 32 Oeste 0 1008.4 -0.1 55
2019-11-27 15:00:00 20.6 24 Oeste 50 Sudoeste 0 1008.3 -1 45
2019-11-27 14:00:00 20.4 31 Sudoeste 52 Oeste 0 1008.4 -1.3 47
2019-11-27 06:00:00 15.8 23 Sudoeste 35 Sudoeste 0 1007 -0.5 88
2019-11-27 05:00:00 15.9 21 Sudoeste 32 Sudoeste 0 1006.9 -0.3 87
2019-11-27 04:00:00 16 26 Sudoeste 39 Oeste 0 1007.3 -0.4 86
2019-11-27 03:00:00 15.9 28 Sudoeste 42 Sudoeste 0 1007.5 -0.6 86
2019-11-27 02:00:00 15.6 24 Sudoeste 37 Oeste 0 1007.2 -1.4 88
2019-11-27 01:00:00 15.5 26 Sudoeste 41 Oeste 0 1007.7 -1.5 87
2019-11-27 00:00:00 15.6 29 Sudoeste 39 Sudoeste 0 1008.1 -1.2 86
2019-11-26 23:00:00 15.8 16 Sudoeste 26 Sudoeste 0 1008.6 -0.9 88
2019-11-26 22:00:00 15.8 14 Sudoeste 28 Sudoeste 0 1009.2 -0.3 89
2019-11-26 21:00:00 15.7 19 Sudoeste 33 Sudoeste 0 1009.3 0 89
2019-11-26 20:00:00 15.9 19 Sudoeste 32 Oeste 0 1009.5 0.2 88
2019-11-26 19:00:00 15.4 22 Sudoeste 30 Sudoeste 0 1009.5 -0.4 88
2019-11-26 18:00:00 15.8 18 Sudoeste 28 Sudoeste 0 1009.3 -0.7 85
2019-11-26 17:00:00 16.6 18 Sudoeste 33 Sudoeste 0 1009.3 -0.8 81
2019-11-26 16:00:00 17.6 22 Sudoeste 33 Sudoeste 0 1009.9 -1.1 74
2019-11-26 15:00:00 17.7 24 Sudoeste 33 Sudoeste 0 1010 -1.8 71
2019-11-26 14:00:00 18 17 Sudoeste 26 Sudoeste 0 1010.1 -2.1 73
2019-11-26 13:00:00 17.9 18 Sudoeste 24 Sudoeste 0 1011 -0.9 73
2019-11-26 12:00:00 18.4 16 Sudoeste 32 Sudoeste 0 1011.8 -0.1 67
2019-11-26 11:00:00 18.6 19 Sudoeste -- -- -- 1012.2 0.5 57
2019-11-26 10:00:00 17.3 16 Oeste 30 Oeste 0 1011.9 0.6 62
2019-11-26 09:00:00 16.3 16 Oeste 30 Oeste 0 1011.9 0.4 66
2019-11-26 08:00:00 14.5 10 Oeste 17 Oeste 0 1011.7 0.1 70
2019-11-26 07:00:00 14.8 5 Sudoeste 21 Oeste 0 1011.3 -0.3 70
2019-11-26 06:00:00 14.9 8 Oeste 15 Oeste 0 1011.5 -0.2 70
2019-11-26 05:00:00 11.9 10 Oeste 15 Oeste 0 1011.6 -0.5 82
2019-11-26 04:00:00 12.6 5 Oeste 9 Sur 0 1011.6 -1 86
2019-11-26 03:00:00 11 4 Nordeste 13 Oeste 0 1011.7 -1.1 91
2019-11-26 02:00:00 10 0 Calma -- -- -- 1012.1 -0.6 89
2019-11-26 01:00:00 10.8 5 Norte 11 Norte 0 1012.6 -0.4 90
2019-11-26 00:00:00 11.4 4 Noroeste 13 Sudoeste 0 1012.8 0.1 89
2019-11-25 23:00:00 11.6 4 Sur 9 Sur 0 1012.7 0.3 89
2019-11-25 22:00:00 12.7 4 Noroeste 9 Norte 0 1013 0.9 88
2019-11-25 21:00:00 14.4 5 Sudoeste 17 Sudoeste 0 1012.7 1.4 86
2019-11-25 20:00:00 15.2 14 Sudoeste 21 Sudoeste 0 1012.4 1.2 86
2019-11-25 19:00:00 16 12 Sudoeste 22 Sur 0 1012.1 1.5 76
2019-11-25 18:00:00 16.5 12 Oeste 30 Oeste 0 1011.3 1.1 61
2019-11-25 17:00:00 18.1 18 Oeste 37 Oeste 0 1011.2 0.9 54
2019-11-25 16:00:00 18.6 29 Oeste 45 Oeste 0 1010.6 0.1 54
2019-11-25 15:00:00 18.8 32 Oeste 48 Oeste 0 1010.2 -0.9 55
2019-11-25 14:00:00 18.7 28 Oeste 46 Oeste 0 1010.3 -1.2 55
2019-11-25 13:00:00 18.2 25 Oeste 45 Oeste 0 1010.5 -0.7 60
2019-11-25 12:00:00 17.6 29 Oeste 42 Oeste 0 1011.1 0 63
2019-11-25 11:00:00 16.8 30 Oeste 45 Oeste 0 1011.5 0.7 64
2019-11-25 10:00:00 16.6 30 Oeste 42 Oeste 0 1011.2 0.5 59
2019-11-25 09:00:00 15.5 22 Oeste 35 Oeste 0 1011.1 0.8 63
2019-11-25 08:00:00 14.7 25 Oeste 37 Oeste 0 1010.8 0.5 63
2019-11-25 07:00:00 14.4 25 Oeste 39 Oeste 0 1010.7 0 62
2019-11-25 06:00:00 14.1 28 Oeste 46 Oeste 0 1010.3 -0.7 63
2019-11-25 05:00:00 13.9 28 Oeste 42 Oeste 0 1010.3 -0.5 61
2019-11-25 04:00:00 13.9 26 Oeste 41 Oeste 0 1010.7 -0.2 61
2019-11-25 03:00:00 13.8 24 Oeste 45 Oeste 0 1011 -0.2 57
2019-11-25 02:00:00 14 26 Oeste -- -- -- 1010.8 -0.2 53
2019-11-25 01:00:00 13.9 22 Oeste 42 Oeste 0 1010.9 0.1 53
2019-11-25 00:00:00 14.2 28 Oeste 46 Oeste 0 1011.2 0.2 52
2019-11-24 23:00:00 14.1 25 Oeste 37 Oeste 0 1011 0.4 55
2019-11-24 22:00:00 14.5 26 Oeste 37 Oeste 0 1010.8 0.3 55
2019-11-24 21:00:00 14.8 27 Oeste 39 Oeste 0 1011 1 52
2019-11-24 20:00:00 14.8 23 Oeste 35 Oeste 0 1010.6 0.8 52
2019-11-24 19:00:00 13.5 15 Oeste 24 Oeste 0 1010.5 -- 57
2019-11-24 18:00:00 14.4 15 Oeste 28 Oeste 0 1010 1 51
2019-11-24 17:00:00 15.7 23 Oeste 35 Oeste 0 1009.8 1 47
2019-11-24 16:00:00 16.4 25 Oeste 39 Oeste 0 -- -- 46
2019-11-24 15:00:00 16.5 23 Oeste 39 Oeste 0 1009 0.3 41
2019-11-24 14:00:00 16.4 26 Oeste 42 Noroeste 0 1008.8 -0.3 41
2019-11-24 13:00:00 16.1 32 Oeste 45 Oeste 0 1008.5 -0.1 47
2019-11-24 12:00:00 16 30 Noroeste 46 Noroeste 0 1008.7 0.4 51
2019-11-24 11:00:00 15.7 24 Oeste 45 Noroeste 0 1009.1 2 52
2019-11-24 10:00:00 14.9 33 Noroeste 48 Noroeste 0 1008.6 2.3 51
2019-11-24 09:00:00 13.9 22 Oeste 46 Oeste 0 1008.3 2.3 54
2019-11-24 08:00:00 13.4 22 Oeste 46 Oeste 0 1007.1 1.5 54
2019-11-24 07:00:00 13.8 26 Oeste 42 Oeste 0 1006.3 1.1 49
2019-11-24 06:00:00 13.4 16 Oeste 35 Oeste 0 1006 1.6 52
2019-11-24 05:00:00 13.5 18 Oeste 37 Oeste 0 1005.6 1.9 51
2019-11-24 04:00:00 13.9 28 Oeste 50 Oeste 0 1005.2 1.5 51
2019-11-24 03:00:00 14.2 38 Oeste 59 Noroeste 0 1004.4 1.6 50
2019-11-24 02:00:00 14.3 41 Oeste -- -- -- 1003.7 1.5 49
2019-11-24 01:00:00 14.5 35 Noroeste 59 Noroeste 0 1003.7 1.6 50
2019-11-24 00:00:00 14.6 32 Oeste 54 Noroeste 0 1002.8 1.2 50
2019-11-23 23:00:00 14.9 28 Oeste 54 Noroeste 0 1002.2 1.2 46
2019-11-23 22:00:00 15.3 36 Noroeste 59 Noroeste 0 1002.1 2.1 46
2019-11-23 21:00:00 15.4 30 Noroeste 58 Oeste 0 1001.6 2.5 47
2019-11-23 20:00:00 15.9 41 Oeste 68 Oeste 0 1001 3 41
2019-11-23 19:00:00 15.7 39 Oeste 58 Oeste 0 1000 3 44
2019-11-23 18:00:00 15.3 31 Oeste 59 Oeste 0 999.1 3.1 47
2019-11-23 17:00:00 15.6 36 Oeste 61 Oeste 0 998 2.5 49
2019-11-23 16:00:00 16.2 36 Oeste 61 Oeste 0 997 1.8 46
2019-11-23 15:00:00 16.2 37 Oeste 65 Noroeste 0 996 1.1 47
2019-11-23 14:00:00 15.4 32 Oeste 74 Oeste 0 995.5 1.3 49
2019-11-23 13:00:00 16 42 Oeste 68 Oeste 0 995.2 1.9 48
2019-11-23 12:00:00 15.1 45 Oeste 72 Oeste 0 994.9 1.9 49
2019-11-23 11:00:00 15.5 47 Oeste 76 Oeste 0 994.2 2.2 49
2019-11-23 10:00:00 15 56 Oeste 78 Oeste 0 993.3 2.2 47
2019-11-23 09:00:00 14.1 47 Oeste 68 Oeste 0 993 1.4 53
2019-11-23 08:00:00 15.7 48 Oeste 65 Oeste 0 992 0.8 49
2019-11-23 07:00:00 15.6 35 Oeste 54 Oeste 0 991.1 -0.7 50
2019-11-23 06:00:00 15.8 23 Oeste 35 Oeste 0 991.6 -0.4 59
2019-11-23 05:00:00 15.6 19 Sudoeste 42 Sudoeste 0 991.2 -1.2 67
2019-11-23 04:00:00 15.6 29 Sudoeste 45 Sudoeste 0 991.8 -0.7 85
2019-11-23 03:00:00 15.6 33 Sudoeste 52 Oeste 0 992 -1.1 84
2019-11-23 02:00:00 16.2 40 Oeste -- -- -- 992.4 -1.4 82
2019-11-23 01:00:00 16.7 36 Sudoeste 52 Sudoeste 0 992.5 -3.1 84
2019-11-23 00:00:00 16.3 33 Sudoeste 63 Sur 0 993.1 -3.2 85
2019-11-22 23:00:00 15.7 39 Sur 65 Sur 0.8 993.8 -3.5 88
2019-11-22 22:00:00 15.7 39 Sudoeste 63 Sur 2.8 995.6 -2.4 89
2019-11-22 21:00:00 15.4 35 Sur 55 Sur 2.5 996.3 -2.2 88
2019-11-22 20:00:00 15.4 33 Sur 55 Sudoeste 2.3 997.3 -1.8 87
2019-11-22 19:00:00 15.7 28 Sur 50 Sur 0.5 998 -1.3 84
2019-11-22 18:00:00 16.2 31 Sur 48 Sur 0 998.5 -1.5 78
2019-11-22 17:00:00 16.2 30 Sur 50 Sudoeste 0 999.1 -2 79
2019-11-22 16:00:00 16.4 28 Sur 45 Sudoeste 0 999.3 -2.8 80
2019-11-22 15:00:00 16.6 31 Sudoeste 50 Sudoeste 0 1000 -3.5 79
2019-11-22 14:00:00 16.7 32 Sudoeste 48 Sudoeste 0 1001.1 -3.4 78
2019-11-22 13:00:00 16.7 20 Sudoeste 41 Sudoeste 0 1002.1 -2.4 79
2019-11-22 12:00:00 17.5 27 Sudoeste 41 Sudoeste 0 1003.5 -1 76
2019-11-22 11:00:00 16.1 20 Sudoeste 30 Sudoeste 0.1 1004.5 0.1 82
2019-11-22 10:00:00 16.4 22 Sudoeste 30 Sudoeste 0 1004.5 0.1 78
2019-11-22 09:00:00 15.7 17 Sudoeste 32 Sudoeste 0 1004.5 0 79
2019-11-22 08:00:00 15.3 19 Sudoeste 28 Sudoeste 0 1004.4 -0.3 81
2019-11-22 07:00:00 15.2 18 Sudoeste 28 Sudoeste 0 1004.4 -0.8 82
2019-11-22 06:00:00 15.5 17 Sudoeste 26 Sudoeste 0 1004.5 -1.2 82
2019-11-22 05:00:00 13.5 0 Calma 5 Norte 0 1004.7 -1.3 91
2019-11-22 04:00:00 13.8 4 Este 11 Oeste 0 1005.2 -1.4 90
2019-11-22 03:00:00 14.7 10 Oeste 22 Oeste 0.1 1005.7 -1.2 88
2019-11-22 02:00:00 15.2 16 Sudoeste -- -- -- 1006 -1.2 83
2019-11-22 01:00:00 15.5 14 Sudoeste 24 Sudoeste 0.2 1006.6 -0.7 82
2019-11-22 00:00:00 15.6 16 Sudoeste 28 Sudoeste 0 1006.9 -0.7 78
2019-11-21 23:00:00 15.6 15 Sudoeste 26 Sudoeste 0 1007.2 -0.3 77
2019-11-21 22:00:00 15.6 17 Sudoeste 26 Sudoeste 0 1007.3 -0.2 75
2019-11-21 21:00:00 15.2 15 Sudoeste 24 Sudoeste 0 1007.6 0.4 74
2019-11-21 20:00:00 15.1 15 Sudoeste 26 Sudoeste 0 1007.5 0.4 72
2019-11-21 19:00:00 15 16 Sudoeste 24 Sudoeste 0 1007.5 0.4 67
2019-11-21 18:00:00 15 16 Sudoeste 24 Sudoeste 0 1007.2 0.1 67
2019-11-21 17:00:00 15.6 15 Sudoeste 26 Oeste 0 1007.1 -0.3 61
2019-11-21 16:00:00 15.8 19 Sudoeste 28 Sudoeste 0 1007.1 -0.6 57
2019-11-21 15:00:00 16.3 17 Sudoeste 30 Oeste 0 1007.1 -1.1 57
2019-11-21 14:00:00 16.3 21 Oeste 33 Oeste 0 1007.4 -0.8 51
2019-11-21 13:00:00 16.2 24 Oeste 42 Oeste 0 1007.7 -0.2 46
2019-11-21 12:00:00 16.8 31 Oeste 45 Oeste 0 1008.2 0.5 44
2019-11-21 11:00:00 15.7 27 Oeste 45 Oeste 0 1008.2 0.9 52
2019-11-21 10:00:00 14.7 30 Oeste 41 Oeste 0 1007.9 1.1 55
2019-11-21 09:00:00 13.8 23 Oeste 33 Oeste 0 1007.7 0.9 59
2019-11-21 08:00:00 12.6 21 Oeste 33 Oeste 0 1007.3 0.5 64
2019-11-21 07:00:00 10.2 13 Oeste 18 Oeste 0 1006.8 0 78
2019-11-21 06:00:00 9.9 13 Noroeste 18 Oeste 0 1006.8 -0.4 82
2019-11-21 05:00:00 10.6 12 Oeste 21 Oeste 0 1006.8 -0.5 81
2019-11-21 04:00:00 11.3 13 Oeste 18 Oeste 0 1006.8 -0.9 77
2019-11-21 03:00:00 9.9 0 Calma 15 Oeste 0 1007.2 -0.4 82
2019-11-21 02:00:00 11.9 12 Oeste -- -- -- 1007.3 -0.6 75
2019-11-21 01:00:00 12.6 15 Oeste 45 Oeste 0.3 1007.7 -0.6 75
2019-11-21 00:00:00 14.7 18 Sudoeste 35 Sudoeste 0 1007.6 -1 67
2019-11-20 23:00:00 14.7 20 Sudoeste 33 Sudoeste 0 1007.9 -0.8 63
2019-11-20 22:00:00 14.2 17 Sudoeste 32 Sudoeste 0 1008.3 -0.3 63
2019-11-20 21:00:00 13.7 15 Sudoeste 28 Sudoeste 0 1008.6 0.1 63
2019-11-20 20:00:00 13.4 12 Sur 18 Sur 0 1008.7 0.1 66
2019-11-20 19:00:00 9.9 3 Norte 9 Sur 0 1008.6 0 76
2019-11-20 18:00:00 11.8 5 Sur 11 Sudoeste 0 1008.5 -0.4 66
2019-11-20 17:00:00 14.5 9 Sudoeste 13 Sudoeste 0 1008.6 -0.7 56
2019-11-20 16:00:00 15.2 9 Sur 21 Sudoeste 0 1008.6 -1.4 51
2019-11-20 15:00:00 15.9 13 Sudoeste 18 Sur 0 1008.9 -1.9 46
2019-11-20 14:00:00 16.1 12 Sudoeste 18 Sur 0 1009.3 -1.9 47
2019-11-20 13:00:00 16.2 13 Sur 18 Sudoeste 0 1010 -1.4 47
2019-11-20 12:00:00 15.3 7 Sur 13 Sur 0 1010.8 -0.5 54
2019-11-20 11:00:00 14.1 3 Norte 9 Norte 0 1011.2 0 69
2019-11-20 10:00:00 11.8 5 Norte 11 Noroeste 0 1011.4 0.2 82
2019-11-20 09:00:00 8.5 5 Norte 9 Norte 0 1011.3 0 86
2019-11-20 08:00:00 7.3 0 Calma 9 Norte 0 1011.2 -0.3 85
2019-11-20 07:00:00 7.5 6 Norte 11 Norte 0 1011.2 -0.9 82
2019-11-20 06:00:00 7.3 7 Norte 11 Norte 0 1011.3 -1.2 82
2019-11-20 05:00:00 -- 8 Norte 9 Norte 0 1011.5 -1.4 --
2019-11-20 04:00:00 7.1 7 Norte 9 Norte 0 1012.1 -1.4 77
2019-11-20 03:00:00 6 5 Nordeste 11 Norte 0 1012.5 -1.4 80
2019-11-20 02:00:00 6.9 5 Norte -- -- -- 1012.9 -1.2 76
2019-11-20 01:00:00 7.1 4 Norte 9 Norte 0 1013.5 -0.7 78
2019-11-20 00:00:00 6.1 4 Noroeste 9 Norte 0 1013.9 -0.4 82
2019-11-19 23:00:00 6.5 8 Norte 11 Noroeste 0 1014.1 -0.2 80
2019-11-19 22:00:00 6.7 7 Norte 9 Norte 0 1014.2 0 78
2019-11-19 21:00:00 7 5 Noroeste 13 Noroeste 0 1014.3 0.5 76
2019-11-19 20:00:00 7.4 3 Noroeste 8 Noroeste 0 1014.3 0.7 74
2019-11-19 19:00:00 8.3 5 Norte 17 Oeste 0 1014.2 0.4 71
2019-11-19 18:00:00 10.7 9 Noroeste 13 Oeste 0 1013.8 0.2 61
2019-11-19 17:00:00 13.2 11 Sudoeste 21 Oeste 0 1013.6 -0.1 51
2019-11-19 16:00:00 14.5 15 Sudoeste 22 Sudoeste 0 1013.8 -0.3 45
2019-11-19 15:00:00 14.9 15 Sudoeste 28 Sudoeste 0 1013.6 -1.2 44
2019-11-19 14:00:00 15 10 Noroeste 21 Noroeste 0 1013.7 -1.8 43
2019-11-19 13:00:00 14.9 15 Sudoeste 24 Oeste 0 1014.1 -1.1 46
2019-11-19 12:00:00 14.8 12 Oeste 18 Noroeste 0 1014.8 -0.2 54
2019-11-19 11:00:00 13.7 8 Sur 9 Sur 0 1015.5 1 58
2019-11-19 10:00:00 11.5 0 Calma 4 Sur 0 1015.2 1.1 74
2019-11-19 09:00:00 9.1 3 Oeste 8 Noroeste 0 1015 1.4 81
2019-11-19 08:00:00 7.5 3 Norte 11 Noroeste 0 1014.5 0.7 84
2019-11-19 07:00:00 7.3 0 Calma 11 Noroeste 0 1014.1 0.2 88
2019-11-19 06:00:00 8.6 9 Norte 11 Norte 0 1013.6 -0.2 87
2019-11-19 05:00:00 8.7 2 Sur 9 Noroeste 0 1013.8 0.1 87
2019-11-19 04:00:00 8.8 5 Oeste 13 Oeste 0.2 1013.9 0.3 88
2019-11-19 03:00:00 9.6 8 Noroeste 21 Norte 0.5 1013.8 0.3 83
2019-11-19 02:00:00 6.7 0 Calma 5 Norte 0 1013.7 0.3 87
2019-11-19 01:00:00 7.3 2 Noroeste 11 Noroeste 0 1013.6 0.8 82
2019-11-19 00:00:00 7 0 Calma 8 Norte 0 1013.5 1.2 83
2019-11-18 23:00:00 7.9 7 Noroeste 13 Noroeste 0 1013.4 1.6 78
2019-11-18 22:00:00 9.8 5 Noroeste 9 Noroeste 0 1012.8 1.8 68
2019-11-18 21:00:00 9 6 Norte 13 Nordeste 0 1012.3 1.9 73
2019-11-18 20:00:00 9.8 3 Sudoeste 11 Sur 0 1011.8 2.1 74
2019-11-18 19:00:00 11.1 9 Norte 30 Nordeste 0 1011 2.3 67
2019-11-18 18:00:00 12.1 19 Norte 35 Norte 0 1010.4 2.1 70
2019-11-18 17:00:00 13 23 Norte 42 Norte 0 1009.7 1.7 60
2019-11-18 16:00:00 13.6 27 Norte 45 Norte 0 1008.7 1 56
2019-11-18 15:00:00 13.6 26 Norte 41 Noroeste 0 1008.3 0.9 60
2019-11-18 14:00:00 14.2 28 Norte 41 Norte 0 1008 0.9 60
2019-11-18 13:00:00 13.6 22 Norte 39 Norte 0 1007.7 1.2 67
2019-11-18 12:00:00 13.7 19 Norte 32 Nordeste 0 1007.4 2 68
2019-11-18 11:00:00 12.3 26 Nordeste 42 Nordeste 0.2 1007.1 2.2 75
2019-11-18 10:00:00 13.2 15 Norte 28 Norte 0 1006.5 1 68
2019-11-18 09:00:00 12.8 21 Norte 35 Nordeste 0 1005.4 0.7 68
2019-11-18 08:00:00 12.3 14 Norte 22 Nordeste 0 1004.9 -0.2 76
2019-11-18 07:00:00 11.7 8 Oeste 13 Oeste 0 1005.5 0.3 78
2019-11-18 06:00:00 11.2 9 Oeste 17 Oeste 0 1004.7 -1.5 80
2019-11-18 05:00:00 10.8 7 Noroeste 15 Oeste 0 1005.1 -1.5 83
2019-11-18 04:00:00 11.3 10 Oeste 22 Oeste 0 1005.2 -1.4 79
2019-11-18 03:00:00 12 16 Oeste 39 Oeste 0.7 1006.2 -1 81
2019-11-18 02:00:00 12.9 25 Oeste 41 Oeste 0 1006.6 -1 76
2019-11-18 01:00:00 14.7 29 Oeste 42 Oeste 0 1006.6 -1.1 56
2019-11-18 00:00:00 14.6 19 Oeste 30 Oeste 0 1007.2 -0.8 60
2019-11-17 23:00:00 14.5 18 Oeste 30 Oeste 0 1007.6 -0.6 61
2019-11-17 22:00:00 15 23 Oeste 48 Sudoeste 0 1007.7 -0.7 61
2019-11-17 21:00:00 15.7 36 Sudoeste 54 Oeste 0 1008 -0.8 59
2019-11-17 20:00:00 15.5 36 Sudoeste 50 Sudoeste 0 1008.2 -0.6 57
2019-11-17 19:00:00 15.3 34 Sudoeste 48 Sudoeste 0 1008.4 -0.7 51
2019-11-17 18:00:00 14.9 31 Sudoeste 48 Sudoeste 0 1008.8 -0.7 49
2019-11-17 17:00:00 14.6 32 Sudoeste 45 Sudoeste 0 1008.8 -1.5 52
2019-11-17 16:00:00 15.5 33 Sudoeste 46 Sudoeste 0 1009.1 -1.6 42
2019-11-17 15:00:00 15.2 29 Sudoeste 45 Sudoeste 0 1009.5 -2 43
2019-11-17 14:00:00 15 30 Sudoeste 45 Sudoeste 0 1010.3 -1.4 42
2019-11-17 13:00:00 14.8 28 Oeste 63 Oeste 0 1010.7 -1 45
2019-11-17 12:00:00 14.2 31 Oeste 48 Oeste 0 1011.5 0.1 45
2019-11-17 11:00:00 13.6 31 Oeste 45 Oeste 0 1011.7 0.7 46
2019-11-17 10:00:00 12.8 28 Oeste 46 Oeste 0 1011.7 1.2 45
2019-11-17 09:00:00 12.4 26 Oeste 41 Oeste 0 1011.4 1.1 49
2019-11-17 08:00:00 11.5 21 Oeste 37 Oeste 0 1011 0.8 52
2019-11-17 07:00:00 11.6 23 Oeste 42 Oeste 0 1010.5 0.7 47
2019-11-17 06:00:00 12 24 Oeste 35 Oeste 0 1010.3 0.1 47
2019-11-17 05:00:00 11.4 12 Noroeste 35 Oeste 0 1010.2 -0.5 51
2019-11-17 04:00:00 12.3 28 Oeste 50 Noroeste 0 1009.8 -1.1 49
2019-11-17 03:00:00 12.3 27 Oeste 45 Noroeste 0 1010.2 -1 50
2019-11-17 02:00:00 12.3 30 Oeste 42 Oeste 0 1010.7 -0.9 46
2019-11-17 01:00:00 10.8 18 Oeste 30 Oeste 0 1010.9 -0.9 55
2019-11-17 00:00:00 6.9 4 Noroeste 8 Noroeste 0 1011.2 -0.5 70
2019-11-16 23:00:00 7.2 3 Sudoeste 11 Noroeste 0 1011.6 0.1 67
2019-11-16 22:00:00 6.9 7 Sudoeste 11 Noroeste 0 1011.8 1 73
2019-11-16 21:00:00 7.7 6 Oeste 13 Noroeste 0 1011.7 1.4 67
2019-11-16 20:00:00 9 8 Oeste 17 Noroeste 0 1011.5 1.9 63
2019-11-16 19:00:00 10.6 11 Noroeste 26 Noroeste 0 1010.8 1.9 61
2019-11-16 18:00:00 11.4 12 Noroeste 30 Noroeste 0 1010.3 2.1 56
2019-11-16 17:00:00 12.4 18 Noroeste 46 Noroeste 0 1009.6 1.3 54
2019-11-16 16:00:00 13 29 Norte 50 Norte 0 1008.9 0.4 53
2019-11-16 15:00:00 13.5 28 Norte 45 Norte 0 1008.2 -0.5 51
2019-11-16 14:00:00 13.5 27 Norte 42 Norte 0 1008.3 -0.2 50
2019-11-16 13:00:00 13.1 25 Norte 46 Norte 0 1008.5 0.3 54
2019-11-16 12:00:00 12.7 21 Norte 45 Norte 0 1008.7 1.4 54
2019-11-16 11:00:00 12.3 23 Norte 41 Norte 0 1008.5 1.7 57
2019-11-16 10:00:00 11.9 20 Norte 33 Norte 0 1008.2 2.2 56
2019-11-16 09:00:00 11.3 17 Norte 37 Norte 0 1007.3 2.3 58
2019-11-16 08:00:00 8.7 4 Norte 8 Noroeste 0 1006.8 1.7 75
2019-11-16 07:00:00 8.7 3 Nordeste 15 Este 0 1006 1.5 72
2019-11-16 06:00:00 9.9 7 Norte 28 Noroeste 0 1005 0.7 65
2019-11-16 05:00:00 9.2 9 Norte 22 Nordeste 0 1005.1 0.7 71
2019-11-16 04:00:00 9.8 17 Nordeste 30 Nordeste 0 1004.5 0.4 75
2019-11-16 03:00:00 9.7 10 Norte -- -- -- 1004.3 0.2 65
2019-11-16 02:00:00 9.2 17 Norte 22 Norte 0 1004.4 0.6 77
2019-11-16 01:00:00 7.8 0 Calma -- -- 0 1004.1 0.4 81
2019-11-16 00:00:00 9.1 7 Norte 11 Norte 0 1004.1 0.8 76